City Of Joliet — WDC2653 — position and weather

sailwx.info

Track history (hours):
 
Tides and Currents Weather Stations Pressure Air Temp Water Temp Dewpoint Dewpoint Depression Visibility Wind Speed Wind Dir Waves Ship Positions

City Of Joliet

Owner: Kirby Inland Marine LP, Houston, TX. More information available from US FCC via Universal Licensing System and Coast Guard Vessel Documentation Center.

Last reported at 2018-Feb-17 16:08 UTC. Time now 2018-Feb-19 14:16 UTC.
Position N 32°03' W 091°03'.

Length 231 m; draft 2.7 m.

Type: . MMSI: 365947464.

Date/timePositionNaut miles runAvg speedWind from/ knotsBaromVisibWave heightAir tempDewpointWater temp
2018-Feb-17 16:08N 32°03' W 091°03'2 8.2
2018-Feb-17 15:50N 32°05' W 091°05'3 9.1
2018-Feb-17 15:30N 32°07' W 091°07'5 8.7
2018-Feb-17 14:59N 32°07' W 091°01'4 9.3
2018-Feb-17 14:30N 32°12' W 090°60'5 9.1
2018-Feb-17 14:01N 32°16' W 090°58'4 7.9
2018-Feb-17 13:30N 32°19' W 090°54'3 6.8
2018-Feb-17 13:00N 32°21' W 090°57'3 6.7
2018-Feb-17 12:30N 32°24' W 090°59'4 8.3
2018-Feb-17 12:00N 32°26' W 091°03'5 9.1
2018-Feb-17 11:30N 32°30' W 091°07'5 8.9
2018-Feb-17 10:59N 32°34' W 091°07'5 9.5
2018-Feb-17 10:26N 32°39' W 091°09'  
2018-Feb-12 16:36N 38°37' W 090°11'1 8.5
2018-Feb-12 16:30N 38°38' W 090°11'4 3.5
2018-Feb-12 15:14N 38°42' W 090°11'1 3.3
2018-Feb-12 15:00N 38°43' W 090°10'4 4.4
2018-Feb-12 14:03N 38°47' W 090°08'1 4.6
2018-Feb-12 13:52N 38°48' W 090°07'3 7.1
2018-Feb-12 13:30N 38°50' W 090°07'3 5.7
2018-Feb-12 12:59N 38°52' W 090°09'0 0.3
2018-Feb-12 12:29N 38°52' W 090°09'2 3.5
2018-Feb-12 12:00N 38°53' W 090°11'1 1.8
2018-Feb-12 11:30N 38°53' W 090°10'1 0.7
2018-Feb-12 10:29N 38°52' W 090°09'0 0.2
2018-Feb-12 10:00N 38°52' W 090°09'0 0.3
2018-Feb-12 09:28N 38°52' W 090°09'0 0.0
2018-Feb-12 08:59N 38°52' W 090°09'0 0.5
2018-Feb-12 08:30N 38°52' W 090°09'0 0.2
2018-Feb-12 08:00N 38°52' W 090°09'0 0.0
2018-Feb-12 07:30N 38°52' W 090°09'1 1.1
2018-Feb-12 07:00N 38°53' W 090°10'1 2.2
2018-Feb-12 06:30N 38°53' W 090°11'0 0.0
2018-Feb-12 06:00N 38°53' W 090°11'0 0.0
2018-Feb-12 05:30N 38°53' W 090°11'0 0.0
2018-Feb-12 05:00N 38°53' W 090°11'0 0.0
2018-Feb-12 04:30N 38°53' W 090°11'0 0.0
2018-Feb-12 04:00N 38°53' W 090°11'1 2.5
2018-Feb-12 03:30N 38°54' W 090°12'2 4.3
2018-Feb-12 03:00N 38°55' W 090°15'3 5.7
2018-Feb-12 02:30N 38°55' W 090°18'3 6.4
2018-Feb-12 02:00N 38°57' W 090°22'3 6.6
2018-Feb-12 01:30N 38°58' W 090°26'3 6.3
2018-Feb-12 01:00N 38°58' W 090°30'2 4.4
2018-Feb-12 00:30N 38°58' W 090°33'3 5.3
2018-Feb-12 00:00N 39°00' W 090°34'2 4.9
2018-Feb-11 23:30N 39°03' W 090°35'2 4.4
2018-Feb-11 23:00N 39°05' W 090°35'3 5.1
2018-Feb-11 22:30N 39°07' W 090°36'2 4.6
2018-Feb-11 22:00N 39°10' W 090°37'2 4.6
2018-Feb-11 21:30N 39°12' W 090°36'  
Track history (hours):
 
Tides and Currents Weather Stations Pressure Air Temp Water Temp Dewpoint Dewpoint Depression Visibility Wind Speed Wind Dir Waves Ship Positions

City Of Joliet

Owner: Kirby Inland Marine LP, Houston, TX. More information available from US FCC via Universal Licensing System and Coast Guard Vessel Documentation Center.

Last reported at 2018-Feb-17 16:08 UTC. Time now 2018-Feb-19 14:16 UTC.
Position N 32°03' W 091°03'.

Length 231 m; draft 2.7 m.

Type: . MMSI: 365947464.

Date/timePositionNaut miles runAvg speedWind from/ knotsBaromVisibWave heightAir tempDewpointWater temp
2018-Feb-17 16:08N 32°03' W 091°03'2 8.2
2018-Feb-17 15:50N 32°05' W 091°05'3 9.1
2018-Feb-17 15:30N 32°07' W 091°07'5 8.7
2018-Feb-17 14:59N 32°07' W 091°01'4 9.3
2018-Feb-17 14:30N 32°12' W 090°60'5 9.1
2018-Feb-17 14:01N 32°16' W 090°58'4 7.9
2018-Feb-17 13:30N 32°19' W 090°54'3 6.8
2018-Feb-17 13:00N 32°21' W 090°57'3 6.7
2018-Feb-17 12:30N 32°24' W 090°59'4 8.3
2018-Feb-17 12:00N 32°26' W 091°03'5 9.1
2018-Feb-17 11:30N 32°30' W 091°07'5 8.9
2018-Feb-17 10:59N 32°34' W 091°07'5 9.5
2018-Feb-17 10:26N 32°39' W 091°09'  
2018-Feb-12 16:36N 38°37' W 090°11'1 8.5
2018-Feb-12 16:30N 38°38' W 090°11'4 3.5
2018-Feb-12 15:14N 38°42' W 090°11'1 3.3
2018-Feb-12 15:00N 38°43' W 090°10'4 4.4
2018-Feb-12 14:03N 38°47' W 090°08'1 4.6
2018-Feb-12 13:52N 38°48' W 090°07'3 7.1
2018-Feb-12 13:30N 38°50' W 090°07'3 5.7
2018-Feb-12 12:59N 38°52' W 090°09'0 0.3
2018-Feb-12 12:29N 38°52' W 090°09'2 3.5
2018-Feb-12 12:00N 38°53' W 090°11'1 1.8
2018-Feb-12 11:30N 38°53' W 090°10'1 0.7
2018-Feb-12 10:29N 38°52' W 090°09'0 0.2
2018-Feb-12 10:00N 38°52' W 090°09'0 0.3
2018-Feb-12 09:28N 38°52' W 090°09'0 0.0
2018-Feb-12 08:59N 38°52' W 090°09'0 0.5
2018-Feb-12 08:30N 38°52' W 090°09'0 0.2
2018-Feb-12 08:00N 38°52' W 090°09'0 0.0
2018-Feb-12 07:30N 38°52' W 090°09'1 1.1
2018-Feb-12 07:00N 38°53' W 090°10'1 2.2
2018-Feb-12 06:30N 38°53' W 090°11'0 0.0
2018-Feb-12 06:00N 38°53' W 090°11'0 0.0
2018-Feb-12 05:30N 38°53' W 090°11'0 0.0
2018-Feb-12 05:00N 38°53' W 090°11'0 0.0
2018-Feb-12 04:30N 38°53' W 090°11'0 0.0
2018-Feb-12 04:00N 38°53' W 090°11'1 2.5
2018-Feb-12 03:30N 38°54' W 090°12'2 4.3
2018-Feb-12 03:00N 38°55' W 090°15'3 5.7
2018-Feb-12 02:30N 38°55' W 090°18'3 6.4
2018-Feb-12 02:00N 38°57' W 090°22'3 6.6
2018-Feb-12 01:30N 38°58' W 090°26'3 6.3
2018-Feb-12 01:00N 38°58' W 090°30'2 4.4
2018-Feb-12 00:30N 38°58' W 090°33'3 5.3
2018-Feb-12 00:00N 39°00' W 090°34'2 4.9
2018-Feb-11 23:30N 39°03' W 090°35'2 4.4
2018-Feb-11 23:00N 39°05' W 090°35'3 5.1
2018-Feb-11 22:30N 39°07' W 090°36'2 4.6
2018-Feb-11 22:00N 39°10' W 090°37'2 4.6
2018-Feb-11 21:30N 39°12' W 090°36'  

Dump ship's entire track history